Flight Track Log - Related Links

Times and Time Zones

All times are in EDT time to prevent confusion due to time zone crossing. See the NKS235 flight status page for this flight to view local times or setup timezone preferences in your user account.

Time Position Orientation Groundspeed Altitude Reporting Facility
EDT Latitude Longitude Course Direction KTS MPH feet Rate Location/Type
Tue 02:07:12 PM 39.4486 -74.5521 116° Southeast 158 182 1,200  Level FlightAware ADS-B
Tue 02:07:25 PM 39.4443 -74.5401 115° Southeast 164 189 1,600 1,655 Climbing FlightAware ADS-B
Tue 02:07:41 PM 39.4389 -74.5255 116° Southeast 176 203 2,000 1,588 Climbing FlightAware ADS-B
Tue 02:07:59 PM 39.4320 -74.5077 117° Southeast 190 219 2,500 1,909 Climbing FlightAware ADS-B
Tue 02:08:03 PM 39.4297 -74.5038 127° Southeast 190 219 2,700 1,714 Climbing FlightAware ADS-B
Tue 02:08:06 PM 39.4277 -74.5015 138° Southeast 189 217 2,700 1,500 Level FlightAware ADS-B
Tue 02:08:11 PM 39.4238 -74.4990 154° Southeast 189 217 2,900 2,000 Climbing FlightAware ADS-B
Tue 02:08:15 PM 39.4203 -74.4979 166° South 189 217 3,000 2,000 Climbing FlightAware ADS-B
Tue 02:08:26 PM 39.4113 -74.5001 191° South 193 222 3,400 2,143 Climbing FlightAware ADS-B
Tue 02:08:29 PM 39.4086 -74.5024 213° Southwest 196 226 3,500 2,000 Climbing FlightAware ADS-B
Tue 02:08:35 PM 39.4046 -74.5066 219° Southwest 199 229 3,700 1,385 Climbing FlightAware ADS-B
Tue 02:08:42 PM 39.3994 -74.5126 222° Southwest 209 241 3,800 1,043 Climbing FlightAware ADS-B
Tue 02:08:58 PM 39.3858 -74.5261 217° Southwest 237 273 4,100 1,154 Climbing FlightAware ADS-B
Tue 02:09:08 PM 39.3766 -74.5344 215° Southwest 253 291 4,300 1,714 Climbing FlightAware ADS-B
Tue 02:09:12 PM 39.3721 -74.5370 204° Southwest 255 293 4,500 3,000 Climbing FlightAware ADS-B
Tue 02:09:18 PM 39.3654 -74.5392 194° South 255 293 4,800 3,333 Climbing FlightAware ADS-B
Tue 02:09:21 PM 39.3620 -74.5395 184° South 256 295 5,000 3,000 Climbing FlightAware ADS-B
Tue 02:09:24 PM 39.3582 -74.5395 180° South 257 296 5,100 3,429 Climbing FlightAware ADS-B
Tue 02:09:28 PM 39.3539 -74.5393 178° South 258 297 5,400 3,300 Climbing FlightAware ADS-B
Tue 02:09:44 PM 39.3354 -74.5381 177° South 261 300 6,200 2,935 Climbing FlightAware ADS-B
Tue 02:11:00 PM 39.2410 -74.5460 184° South 271 312 9,900 2,430 Climbing FlightAware ADS-B
Tue 02:11:45 PM 39.1810 -74.5670 195° South 320 368 11,100 1,482 Climbing FlightAware ADS-B
Tue 02:12:25 PM 39.1200 -74.5770 187° South 341 392 12,000 786 Climbing FlightAware ADS-B
Tue 02:13:09 PM 39.0500 -74.5670 174° South 328 377 12,200 1,705 Climbing FlightAware ADS-B
Tue 02:13:53 PM 38.9840 -74.5540 171° South 312 359 14,500 2,769 Climbing FlightAware ADS-B
Tue 02:14:27 PM 38.9360 -74.5450 172° South 321 369 15,800 2,174 Climbing FlightAware ADS-B
Tue 02:15:02 PM 38.8820 -74.5530 187° South 324 373 17,000 1,846 Climbing FlightAware ADS-B
Tue 02:15:32 PM 38.8400 -74.5760 203° Southwest 332 382 17,800 2,027 Climbing FlightAware ADS-B
Tue 02:16:16 PM 38.7780 -74.6080 202° Southwest 332 382 19,500 2,071 Climbing FlightAware ADS-B
Tue 02:16:56 PM 38.7200 -74.6380 202° Southwest 332 382 20,700 1,629 Climbing FlightAware ADS-B
Tue 02:17:26 PM 38.6770 -74.6600 202° Southwest 344 396 21,400 1,182 Climbing FlightAware ADS-B
Tue 02:18:02 PM 38.6280 -74.6860 203° Southwest 347 399 22,000 789 Climbing FlightAware ADS-B
Tue 02:18:42 PM 38.5630 -74.7190 202° Southwest 350 403 22,400 880 Climbing FlightAware ADS-B
Tue 02:19:17 PM 38.5080 -74.7480 202° Southwest 362 417 23,100 771 Climbing FlightAware ADS-B
Tue 02:19:52 PM 38.4520 -74.7770 202° Southwest 384 442 23,300 414 Climbing FlightAware ADS-B
Tue 02:20:15 PM 38.4214 -74.7928 202° Southwest 397 457 23,500 964 Climbing FlightAware ADS-B
Tue 02:20:48 PM 38.3556 -74.8267 202° Southwest 403 464 24,200 1,200 Climbing FlightAware ADS-B
Tue 02:21:20 PM 38.2997 -74.8553 202° Southwest 410 472 24,800 1,200 Climbing FlightAware ADS-B
Tue 02:21:33 PM 38.2770 -74.8681 204° Southwest 409 471 25,100 1,273 Climbing FlightAware ADS-B
Tue 02:21:53 PM 38.2443 -74.8898 208° Southwest 410 472 25,500 1,294 Climbing FlightAware ADS-B
Tue 02:22:24 PM 38.1939 -74.9305 212° Southwest 411 473 26,200 1,161 Climbing FlightAware ADS-B
Tue 02:22:55 PM 38.1435 -74.9716 213° Southwest 416 479 26,700 1,082 Climbing FlightAware ADS-B
Tue 02:23:25 PM 38.0940 -75.0117 213° Southwest 419 482 27,300 985 Climbing FlightAware ADS-B
Tue 02:24:02 PM 38.0336 -75.0604 212° Southwest 426 490 27,800 985 Climbing FlightAware ADS-B
Tue 02:24:32 PM 37.9836 -75.1008 212° Southwest 426 490 28,400 1,180 Climbing FlightAware ADS-B
Tue 02:25:03 PM 37.9317 -75.1427 212° Southwest 427 491 29,000 968 Climbing FlightAware ADS-B
Tue 02:25:34 PM 37.8803 -75.1842 213° Southwest 431 496 29,400 1,000 Climbing FlightAware ADS-B
Tue 02:26:09 PM 37.8227 -75.2306 212° Southwest 431 496 30,100 1,385 Climbing FlightAware ADS-B
Tue 02:26:39 PM 37.7711 -75.2720 212° Southwest 423 487 30,900 1,377 Climbing FlightAware ADS-B
Tue 02:27:10 PM 37.7196 -75.3133 212° Southwest 422 486 31,500 1,273 Climbing FlightAware ADS-B
Tue 02:27:45 PM 37.6650 -75.3560 212° Southwest 418 481 32,300 1,294 Climbing FlightAware ADS-B
Tue 02:28:01 PM 37.6366 -75.3795 213° Southwest 417 480 32,600 1,071 Climbing FlightAware ADS-B
Tue 02:29:09 PM 37.5290 -75.4650 212° Southwest 408 470 33,800 1,036 Climbing FlightAware ADS-B
Tue 02:29:51 PM 37.4700 -75.5120 212° Southwest 405 466 34,500 780 Climbing FlightAware ADS-B
Tue 02:30:49 PM 37.3990 -75.5690 213° Southwest 406 467 35,100 884 Climbing FlightAware ADS-B
Tue 02:31:26 PM 37.3080 -75.6400 212° Southwest 403 464 35,900 1,059 Climbing FlightAware ADS-B
Tue 02:31:40 PM 37.2837 -75.6599 213° Southwest 410 472 36,000 133 Climbing FlightAware ADS-B
Tue 02:32:11 PM 37.2338 -75.6994 212° Southwest 410 472 36,000  Level FlightAware ADS-B
Tue 02:32:42 PM 37.1838 -75.7388 212° Southwest 411 473 36,000  Level FlightAware ADS-B
Tue 02:33:15 PM 37.1308 -75.7803 212° Southwest 412 474 36,000  Level FlightAware ADS-B
Tue 02:33:45 PM 37.0821 -75.8186 212° Southwest 413 475 36,000  Level FlightAware ADS-B
Tue 02:34:15 PM 37.0341 -75.8562 212° Southwest 413 475 36,000  Level FlightAware ADS-B
Tue 02:34:45 PM 36.9844 -75.8951 212° Southwest 414 476 36,000  Level FlightAware ADS-B
Tue 02:35:19 PM 36.9299 -75.9377 212° Southwest 414 476 36,000  Level FlightAware ADS-B
Tue 02:35:50 PM 36.8796 -75.9770 212° Southwest 415 478 36,000  Level FlightAware ADS-B
Tue 02:36:22 PM 36.8261 -76.0187 212° Southwest 416 479 36,000  Level FlightAware ADS-B
Tue 02:36:53 PM 36.7757 -76.0578 212° Southwest 416 479 36,000  Level FlightAware ADS-B
Tue 02:37:31 PM 36.7139 -76.1058 212° Southwest 416 479 36,000  Level FlightAware ADS-B
Tue 02:38:02 PM 36.6630 -76.1453 212° Southwest 416 479 36,000  Level FlightAware ADS-B
Tue 02:38:41 PM 36.6010 -76.1932 212° Southwest 418 481 36,000  Level FlightAware ADS-B
Tue 02:39:35 PM 36.5170 -76.2580 212° Southwest 418 481 36,000  Level FlightAware ADS-B
Tue 02:41:03 PM 36.3700 -76.3710 212° Southwest 419 482 36,000  Level FlightAware ADS-B
Tue 02:41:47 PM 36.3000 -76.4250 212° Southwest 420 483 36,000  Level FlightAware ADS-B
Tue 02:42:24 PM 36.2410 -76.4700 212° Southwest 420 483 36,000  Level FlightAware ADS-B
Tue 02:43:04 PM 36.1760 -76.5200 212° Southwest 420 483 36,000  Level FlightAware ADS-B
Tue 02:44:00 PM 36.0890 -76.5850 211° Southwest 419 482 36,000  Level FlightAware ADS-B
Tue 02:44:37 PM 36.0306 -76.6297 211° Southwest 428 493 36,000  Level Washington Center
Tue 02:45:37 PM 35.9297 -76.7053 211° Southwest 428 493 36,000 -50 Level Washington Center
Tue 02:46:36 PM 35.8331 -76.7808 212° Southwest 428 493 35,900 -50 Descending Washington Center
Tue 02:47:37 PM 35.7300 -76.8533 210° Southwest 428 493 35,900 50 Level Washington Center
Tue 02:48:37 PM 35.6353 -76.9311 214° Southwest 428 493 36,000 51 Climbing Washington Center
Tue 02:49:35 PM 35.5386 -77.0011 211° Southwest 422 486 36,000  Level Washington Center
Tue 02:50:35 PM 35.4375 -77.0783 212° Southwest 422 486 36,000  Level Washington Center
Tue 02:51:36 PM 35.3236 -77.1578 210° Southwest 428 493 36,000  Level Washington Center
Tue 02:52:36 PM 35.2247 -77.2344 212° Southwest 433 498 36,000  Level Washington Center
Tue 02:53:37 PM 35.1233 -77.3086 211° Southwest 433 498 36,000  Level Washington Center
Tue 02:54:34 PM 35.0181 -77.3850 211° Southwest 433 498 36,000  Level Washington Center
Tue 02:55:36 PM 34.9189 -77.4589 211° Southwest 433 498 36,000  Level Washington Center
Tue 02:56:36 PM 34.8194 -77.5375 213° Southwest 433 498 36,000  Level Washington Center
Tue 02:57:35 PM 34.7161 -77.6108 210° Southwest 433 498 36,000  Level Washington Center
Tue 03:03:32 PM 34.0650 -77.9580 210° Southwest 443 510 36,000  Level FlightAware ADS-B
Tue 03:04:12 PM 33.9780 -77.9830 193° South 442 509 36,000  Level FlightAware ADS-B
Tue 03:04:47 PM 33.9120 -78.0020 193° South 441 507 36,000  Level FlightAware ADS-B
Tue 03:05:32 PM 33.8200 -78.0280 193° South 444 511 36,000  Level FlightAware ADS-B
Tue 03:06:12 PM 33.7390 -78.0520 194° South 446 513 36,000  Level FlightAware ADS-B
Tue 03:07:13 PM 33.6270 -78.0830 193° South 447 514 36,000  Level FlightAware ADS-B
Tue 03:08:27 PM 33.4690 -78.1290 194° South 451 519 36,000  Level FlightAware ADS-B
Tue 03:09:12 PM 33.3760 -78.1560 194° South 451 519 36,000  Level FlightAware ADS-B
Tue 03:10:12 PM 33.2520 -78.1910 193° South 452 520 36,000  Level FlightAware ADS-B
Tue 03:10:32 PM 33.2130 -78.2020 193° South 452 520 36,000  Level FlightAware ADS-B
Tue 03:11:52 PM 33.0740 -78.2410 193° South 453 521 36,000  Level FlightAware ADS-B
Tue 03:12:27 PM 32.9790 -78.2680 193° South 454 522 36,000  Level FlightAware ADS-B
Tue 03:13:07 PM 32.9010 -78.2900 193° South 453 521 36,000  Level FlightAware ADS-B
Tue 03:13:52 PM 32.8040 -78.3170 193° South 453 521 36,000  Level FlightAware ADS-B
Tue 03:14:37 PM 32.7140 -78.3430 194° South 454 522 36,000  Level FlightAware ADS-B
Tue 03:15:07 PM 32.6580 -78.3580 193° South 455 524 36,000  Level FlightAware ADS-B
Tue 03:15:48 PM 32.5730 -78.3820 193° South 456 525 36,000  Level FlightAware ADS-B
Tue 03:16:27 PM 32.4920 -78.4050 193° South 458 527 36,000  Level FlightAware ADS-B
Tue 03:17:02 PM 32.4130 -78.4270 193° South 457 526 36,000  Level FlightAware ADS-B
Tue 03:17:42 PM 32.3330 -78.4500 194° South 458 527 36,000  Level FlightAware ADS-B
Tue 03:18:17 PM 32.2630 -78.4710 194° South 459 528 36,000  Level FlightAware ADS-B
Tue 03:18:57 PM 32.1780 -78.4960 194° South 461 531 36,000  Level FlightAware ADS-B
Tue 03:19:32 PM 32.1050 -78.5170 194° South 462 532 36,000  Level FlightAware ADS-B
Tue 03:20:50 PM 31.9670 -78.5540 193° South 462 532 36,000  Level FlightAware ADS-B
Tue 03:21:26 PM 31.9030 -78.5720 193° South 462 532 36,000  Level FlightAware ADS-B
Tue 03:22:14 PM 31.8180 -78.5950 193° South 462 532 36,000  Level FlightAware ADS-B
Tue 03:22:51 PM 31.7520 -78.6130 193° South 462 532 36,000  Level FlightAware ADS-B
Tue 03:23:32 PM 31.6090 -78.6600 196° South 462 532 36,000  Level FlightAware ADS-B
Tue 03:24:36 PM 31.4890 -78.6930 193° South 462 532 36,000  Level FlightAware ADS-B
Tue 03:25:12 PM 31.4250 -78.7100 193° South 462 532 36,000  Level FlightAware ADS-B
Tue 03:26:02 PM 31.3370 -78.7340 193° South 462 532 36,000  Level FlightAware ADS-B
Tue 03:26:46 PM 31.4930 -78.6920 13° North 462 532 36,000  Level FlightAware ADS-B
Tue 03:27:22 PM 31.4290 -78.7090 193° South 462 532 36,000  Level FlightAware ADS-B
Tue 03:27:58 PM 31.3650 -78.7260 193° South 462 532 36,000  Level FlightAware ADS-B
Tue 03:28:47 PM 31.2780 -78.7500 193° South 462 532 36,000  Level FlightAware ADS-B
Tue 03:29:25 PM 31.2110 -78.7680 193° South 462 532 36,000  Level FlightAware ADS-B
Tue 03:30:01 PM 31.1470 -78.7850 193° South 462 532 36,000  Level FlightAware ADS-B
Tue 03:30:50 PM 31.0610 -78.8090 193° South 462 532 36,000  Level FlightAware ADS-B
Tue 03:31:27 PM 30.9950 -78.8260 192° South 462 532 36,000  Level FlightAware ADS-B
Tue 03:32:16 PM 30.9080 -78.8500 193° South 462 532 36,000  Level FlightAware ADS-B
Tue 03:32:51 PM 30.8460 -78.8660 192° South 462 532 36,000  Level FlightAware ADS-B
Tue 03:33:40 PM 30.7600 -78.8890 193° South 462 532 36,000  Level FlightAware ADS-B
Tue 03:34:17 PM 30.6940 -78.9070 193° South 462 532 36,000  Level FlightAware ADS-B
Tue 03:34:54 PM 30.6290 -78.9250 193° South 462 532 36,000  Level FlightAware ADS-B
Tue 03:36:05 PM 30.5030 -78.9580 193° South 462 532 36,000  Level FlightAware ADS-B
Tue 03:37:30 PM 29.8575 -79.1525 193° South 468 539 36,000  Level Miami Center
Tue 03:38:30 PM 29.7256 -79.1783 190° South 468 539 36,000  Level Miami Center
Tue 03:39:30 PM 29.5981 -79.2114 193° South 468 539 36,000  Level Miami Center
Tue 03:40:30 PM 29.4844 -79.2542 198° South 468 539 36,000  Level Miami Center
Tue 03:41:30 PM 29.3486 -79.2775 189° South 468 539 36,000  Level Miami Center
Tue 03:42:30 PM 29.2481 -79.2989 191° South 468 539 36,000  Level Miami Center
Tue 03:43:30 PM 29.1100 -79.3314 192° South 469 540 36,000  Level Miami Center
Tue 03:44:30 PM 28.9883 -79.3644 193° South 464 534 36,000  Level Miami Center
Tue 03:50:22 PM 28.2420 -79.5490 193° South 456 525 36,000  Level FlightAware ADS-B
Tue 03:51:10 PM 28.1880 -79.5620 192° South 455 524 36,000  Level FlightAware ADS-B
Tue 03:51:51 PM 28.1170 -79.5790 192° South 455 524 36,000  Level FlightAware ADS-B
Tue 03:52:38 PM 28.0340 -79.5990 192° South 455 524 36,000  Level FlightAware ADS-B
Tue 03:53:26 PM 27.9500 -79.6190 192° South 455 524 36,000 -2,780 Level FlightAware ADS-B
Tue 03:54:00 PM 27.7890 -79.6590 192° South 454 522 32,200 -4,077 Descending FlightAware ADS-B
Tue 03:54:44 PM 27.6980 -79.6810 192° South 447 514 30,700 -1,364 Descending FlightAware ADS-B
Tue 03:55:28 PM 27.6210 -79.7000 192° South 445 512 30,200 -2,025 Descending FlightAware ADS-B
Tue 03:56:04 PM 27.5380 -79.7200 192° South 436 502 28,000 -2,775 Descending FlightAware ADS-B
Tue 03:56:48 PM 27.4510 -79.7410 192° South 431 496 26,500 -2,000 Descending FlightAware ADS-B
Tue 03:57:28 PM 27.3760 -79.7580 191° South 427 491 25,200 -1,971 Descending FlightAware ADS-B
Tue 03:57:58 PM 27.3180 -79.7710 191° South 425 489 24,200 -2,382 Descending FlightAware ADS-B
Tue 03:58:36 PM 27.2420 -79.7630 175° South 424 488 22,500 -2,561 Descending FlightAware ADS-B
Tue 03:59:20 PM 27.1550 -79.7500 172° South 418 481 20,700 -2,250 Descending FlightAware ADS-B
Tue 04:00:04 PM 27.0730 -79.7370 172° South 405 466 19,200 -2,020 Descending FlightAware ADS-B
Tue 04:00:58 PM 26.9740 -79.7210 172° South 388 447 17,400 -1,915 Descending FlightAware ADS-B
Tue 04:01:38 PM 26.9050 -79.7090 171° South 377 434 16,200 -1,786 Descending FlightAware ADS-B
Tue 04:02:22 PM 26.8300 -79.6970 172° South 362 417 14,900 -1,786 Descending FlightAware ADS-B
Tue 04:03:02 PM 26.7640 -79.6860 172° South 351 404 13,700 -1,676 Descending FlightAware ADS-B
Tue 04:03:30 PM 26.7220 -79.6970 193° South 342 394 13,000 -1,588 Descending FlightAware ADS-B
Tue 04:04:10 PM 26.6650 -79.7240 203° Southwest 333 383 11,900 -815 Descending FlightAware ADS-B
Tue 04:04:51 PM 26.6150 -79.7480 203° Southwest 333 383 11,900 -1,531 Level FlightAware ADS-B
Tue 04:05:48 PM 26.5300 -79.7880 203° Southwest 308 354 9,400 -2,276 Descending FlightAware ADS-B
Tue 04:06:18 PM 26.4910 -79.8070 204° Southwest 301 346 8,600 -1,714 Descending FlightAware ADS-B
Tue 04:06:30 PM 26.4760 -79.8140 203° Southwest 305 351 8,200 -1,135 Descending FlightAware ADS-B
Tue 04:06:55 PM 26.4490 -79.8260 202° Southwest 297 342 7,900 -310 Descending FlightAware ADS-B
Tue 04:07:28 PM 26.4050 -79.8480 204° Southwest 279 321 7,900  Level FlightAware ADS-B
Tue 04:07:44 PM 26.3850 -79.8580 204° Southwest 278 320 7,900  Level FlightAware ADS-B
Tue 04:08:10 PM 26.3590 -79.8800 217° Southwest 278 320 7,900  Level FlightAware ADS-B
Tue 04:08:40 PM 26.3310 -79.9080 222° Southwest 278 320 7,900  Level FlightAware ADS-B
Tue 04:09:06 PM 26.3050 -79.9330 221° Southwest 279 321 7,900 -113 Level FlightAware ADS-B
Tue 04:09:33 PM 26.2780 -79.9590 221° Southwest 276 318 7,800 -889 Descending FlightAware ADS-B
Tue 04:10:00 PM 26.2530 -79.9840 222° Southwest 276 318 7,100 -1,627 Descending FlightAware ADS-B
Tue 04:10:32 PM 26.2220 -80.0130 220° Southwest 277 319 6,200 -1,286 Descending FlightAware ADS-B
Tue 04:10:56 PM 26.1970 -80.0360 220° Southwest 275 316 5,900 -333 Descending FlightAware ADS-B
Tue 04:11:26 PM 26.1750 -80.0690 233° Southwest 266 306 5,900  Level FlightAware ADS-B
Tue 04:11:51 PM 26.1660 -80.0990 252° West 239 275 5,900  Level FlightAware ADS-B
Tue 04:12:23 PM 26.1550 -80.1350 251° West 231 266 5,900 -100 Level FlightAware ADS-B
Tue 04:12:51 PM 26.1500 -80.1680 260° West 230 265 5,800 -679 Descending FlightAware ADS-B
Tue 04:13:16 PM 26.1500 -80.1960 270° West 231 266 5,300 -1,350 Descending FlightAware ADS-B
Tue 04:13:31 PM 26.1500 -80.2140 270° West 233 268 4,900 -1,067 Descending FlightAware ADS-B
Tue 04:14:01 PM 26.1500 -80.2490 270° West 226 260 4,500 -610 Descending FlightAware ADS-B
Tue 04:14:30 PM 26.1500 -80.2830 270° West 210 242 4,300 -545 Descending FlightAware ADS-B
Tue 04:14:56 PM 26.1500 -80.3080 270° West 199 229 4,000 -471 Descending FlightAware ADS-B
Tue 04:15:21 PM 26.1500 -80.3350 270° West 201 231 3,900 -273 Descending FlightAware ADS-B
Tue 04:15:40 PM 26.1500 -80.3550 270° West 198 228 3,800 -400 Descending FlightAware ADS-B
Tue 04:15:51 PM 26.1460 -80.3640 244° Southwest 195 224 3,700 -571 Descending FlightAware ADS-B
Tue 04:16:01 PM 26.1400 -80.3710 226° Southwest 183 211 3,600 -900 Descending FlightAware ADS-B
Tue 04:16:31 PM 26.1150 -80.3720 182° South 176 203 3,100 -915 Descending FlightAware ADS-B
Tue 04:17:00 PM 26.0930 -80.3630 160° South 165 190 2,700 -900 Descending FlightAware ADS-B
Tue 04:17:11 PM 26.0900 -80.3550 113° Southeast 164 189 2,500 -878 Descending FlightAware ADS-B
Tue 04:17:41 PM 26.0850 -80.3310 103° East 158 182 2,100 -610 Descending FlightAware ADS-B
Tue 04:18:10 PM 26.0810 -80.3080 101° East 144 166 1,900 -200 Descending FlightAware ADS-B
Tue 04:18:41 PM 26.0780 -80.2860 99° East 148 170 1,900 -400 Level FlightAware ADS-B
Tue 04:19:10 PM 26.0780 -80.2640 90° East 146 168 1,500 -720 Descending FlightAware ADS-B
Tue 04:19:31 PM 26.0780 -80.2480 90° East 141 162 1,300 -609 Descending FlightAware ADS-B
Tue 04:20:19 PM 26.0770 -80.2160 92° East 138 159 800 -720 Descending FlightAware ADS-B
Tue 04:20:46 PM 26.0770 -80.1950 90° East 137 158 400 -692 Descending FlightAware ADS-B
Tue 04:21:11 PM 26.0770 -80.1810 90° East 134 154 200 -235 Descending FlightAware ADS-B
Tue 04:21:37 PM 26.0770 -80.1660 90° East 134 154 200  Level FlightAware ADS-B
Tue 04:28:00 PM 26.0667 -80.1500 103° East  Level FlightAware Approximate
Tue 04:29:00 PM 26.0726 -80.1527 103° East  Level Estimated

Login

Don't have an account? Register now (free) for customized features, flight alerts, and more!